sensor_id;sensor_type;location;lat;lon;timestamp;temperature;humidity
60848;DHT22;46681;47.696;9.140;2023-02-14T00:00:25;9.30;49.30
60848;DHT22;46681;47.696;9.140;2023-02-14T00:02:50;9.30;49.30
60848;DHT22;46681;47.696;9.140;2023-02-14T00:05:16;9.30;49.30
60848;DHT22;46681;47.696;9.140;2023-02-14T00:07:41;9.30;49.30
60848;DHT22;46681;47.696;9.140;2023-02-14T00:10:08;9.30;49.30
60848;DHT22;46681;47.696;9.140;2023-02-14T00:12:34;9.30;49.30
60848;DHT22;46681;47.696;9.140;2023-02-14T00:14:59;9.40;49.30
60848;DHT22;46681;47.696;9.140;2023-02-14T00:17:25;9.40;49.30
60848;DHT22;46681;47.696;9.140;2023-02-14T00:19:50;9.40;49.30
60848;DHT22;46681;47.696;9.140;2023-02-14T00:22:16;9.40;49.30
60848;DHT22;46681;47.696;9.140;2023-02-14T00:24:41;9.40;49.30
60848;DHT22;46681;47.696;9.140;2023-02-14T00:27:09;9.40;49.30
60848;DHT22;46681;47.696;9.140;2023-02-14T00:29:35;9.40;49.30
60848;DHT22;46681;47.696;9.140;2023-02-14T00:32:00;9.40;49.30
60848;DHT22;46681;47.696;9.140;2023-02-14T00:34:26;9.40;49.30
60848;DHT22;46681;47.696;9.140;2023-02-14T00:36:52;9.40;49.30
60848;DHT22;46681;47.696;9.140;2023-02-14T00:39:18;9.40;49.30
60848;DHT22;46681;47.696;9.140;2023-02-14T00:41:44;9.40;49.30
60848;DHT22;46681;47.696;9.140;2023-02-14T00:44:12;9.40;49.30
60848;DHT22;46681;47.696;9.140;2023-02-14T00:46:38;9.40;49.30
60848;DHT22;46681;47.696;9.140;2023-02-14T00:49:06;9.40;49.30
60848;DHT22;46681;47.696;9.140;2023-02-14T00:51:37;9.40;49.30
60848;DHT22;46681;47.696;9.140;2023-02-14T00:54:03;9.40;49.30
60848;DHT22;46681;47.696;9.140;2023-02-14T00:56:29;9.50;49.30
60848;DHT22;46681;47.696;9.140;2023-02-14T00:58:58;9.50;49.70
60848;DHT22;46681;47.696;9.140;2023-02-14T01:01:24;9.50;49.30
60848;DHT22;46681;47.696;9.140;2023-02-14T01:03:55;9.50;49.30
60848;DHT22;46681;47.696;9.140;2023-02-14T01:06:24;9.50;49.30
60848;DHT22;46681;47.696;9.140;2023-02-14T01:08:50;9.50;49.40
60848;DHT22;46681;47.696;9.140;2023-02-14T01:11:22;9.50;49.30
60848;DHT22;46681;47.696;9.140;2023-02-14T01:13:49;9.50;49.30
60848;DHT22;46681;47.696;9.140;2023-02-14T01:16:22;9.50;49.30
60848;DHT22;46681;47.696;9.140;2023-02-14T01:18:51;9.50;49.30
60848;DHT22;46681;47.696;9.140;2023-02-14T01:21:23;9.50;49.30
60848;DHT22;46681;47.696;9.140;2023-02-14T01:23:51;9.50;49.40
60848;DHT22;46681;47.696;9.140;2023-02-14T01:26:17;9.50;49.40
60848;DHT22;46681;47.696;9.140;2023-02-14T01:28:43;9.50;49.40
60848;DHT22;46681;47.696;9.140;2023-02-14T01:33:40;9.50;49.30
60848;DHT22;46681;47.696;9.140;2023-02-14T01:36:07;9.50;49.30
60848;DHT22;46681;47.696;9.140;2023-02-14T01:38:41;9.50;49.30
60848;DHT22;46681;47.696;9.140;2023-02-14T01:41:11;9.50;49.30
60848;DHT22;46681;47.696;9.140;2023-02-14T01:43:54;9.50;49.30
60848;DHT22;46681;47.696;9.140;2023-02-14T01:46:22;9.50;49.30
60848;DHT22;46681;47.696;9.140;2023-02-14T01:49:05;9.50;49.30
60848;DHT22;46681;47.696;9.140;2023-02-14T01:51:43;9.50;49.30
60848;DHT22;46681;47.696;9.140;2023-02-14T01:54:13;9.50;49.40
60848;DHT22;46681;47.696;9.140;2023-02-14T01:56:46;9.50;49.40
60848;DHT22;46681;47.696;9.140;2023-02-14T01:59:18;9.50;49.40
60848;DHT22;46681;47.696;9.140;2023-02-14T02:01:45;9.50;49.30
60848;DHT22;46681;47.696;9.140;2023-02-14T02:04:17;9.50;49.40
60848;DHT22;46681;47.696;9.140;2023-02-14T02:06:48;9.50;49.30
60848;DHT22;46681;47.696;9.140;2023-02-14T02:09:32;9.50;49.40
60848;DHT22;46681;47.696;9.140;2023-02-14T02:11:59;9.50;49.30
60848;DHT22;46681;47.696;9.140;2023-02-14T02:14:25;9.50;49.40
60848;DHT22;46681;47.696;9.140;2023-02-14T02:30:28;9.60;49.50
60848;DHT22;46681;47.696;9.140;2023-02-14T02:41:03;9.50;49.40
60848;DHT22;46681;47.696;9.140;2023-02-14T02:43:52;9.50;49.40
60848;DHT22;46681;47.696;9.140;2023-02-14T02:46:24;9.60;49.40
60848;DHT22;46681;47.696;9.140;2023-02-14T02:51:53;9.60;49.40
60848;DHT22;46681;47.696;9.140;2023-02-14T02:54:30;9.60;49.40
60848;DHT22;46681;47.696;9.140;2023-02-14T02:56:58;9.60;49.40
60848;DHT22;46681;47.696;9.140;2023-02-14T02:59:29;9.50;49.40
60848;DHT22;46681;47.696;9.140;2023-02-14T03:04:32;9.50;49.40
60848;DHT22;46681;47.696;9.140;2023-02-14T03:06:59;9.50;49.40
60848;DHT22;46681;47.696;9.140;2023-02-14T03:12:05;9.50;49.40
60848;DHT22;46681;47.696;9.140;2023-02-14T03:20:37;9.50;49.50
60848;DHT22;46681;47.696;9.140;2023-02-14T03:25:49;9.50;49.50
60848;DHT22;46681;47.696;9.140;2023-02-14T03:34:00;9.50;49.50
60848;DHT22;46681;47.696;9.140;2023-02-14T03:36:57;9.50;49.50
60848;DHT22;46681;47.696;9.140;2023-02-14T03:42:30;9.50;49.50
60848;DHT22;46681;47.696;9.140;2023-02-14T03:44:57;9.50;49.50
60848;DHT22;46681;47.696;9.140;2023-02-14T03:47:30;9.50;49.50
60848;DHT22;46681;47.696;9.140;2023-02-14T03:50:04;9.50;49.50
60848;DHT22;46681;47.696;9.140;2023-02-14T03:52:36;9.50;49.50
60848;DHT22;46681;47.696;9.140;2023-02-14T03:55:05;9.50;49.60
60848;DHT22;46681;47.696;9.140;2023-02-14T03:58:38;9.50;49.50
60848;DHT22;46681;47.696;9.140;2023-02-14T04:00:39;9.50;49.50
60848;DHT22;46681;47.696;9.140;2023-02-14T04:03:10;9.50;49.60
60848;DHT22;46681;47.696;9.140;2023-02-14T04:05:39;9.50;49.60
60848;DHT22;46681;47.696;9.140;2023-02-14T04:08:05;9.50;49.60
60848;DHT22;46681;47.696;9.140;2023-02-14T04:10:31;9.50;49.60
60848;DHT22;46681;47.696;9.140;2023-02-14T04:12:56;9.50;49.50
60848;DHT22;46681;47.696;9.140;2023-02-14T04:15:22;9.50;49.50
60848;DHT22;46681;47.696;9.140;2023-02-14T04:17:47;9.60;49.50
60848;DHT22;46681;47.696;9.140;2023-02-14T04:20:14;9.60;49.50
60848;DHT22;46681;47.696;9.140;2023-02-14T04:22:40;9.60;49.40
60848;DHT22;46681;47.696;9.140;2023-02-14T04:25:06;9.60;49.40
60848;DHT22;46681;47.696;9.140;2023-02-14T04:27:31;9.60;49.40
60848;DHT22;46681;47.696;9.140;2023-02-14T04:30:05;9.60;49.40
60848;DHT22;46681;47.696;9.140;2023-02-14T04:32:31;9.60;49.40
60848;DHT22;46681;47.696;9.140;2023-02-14T04:34:57;9.70;49.40
60848;DHT22;46681;47.696;9.140;2023-02-14T04:37:25;9.70;49.40
60848;DHT22;46681;47.696;9.140;2023-02-14T04:39:50;9.70;49.30
60848;DHT22;46681;47.696;9.140;2023-02-14T04:42:16;9.70;49.30
60848;DHT22;46681;47.696;9.140;2023-02-14T04:44:46;9.70;49.30
60848;DHT22;46681;47.696;9.140;2023-02-14T04:47:14;9.70;49.30
60848;DHT22;46681;47.696;9.140;2023-02-14T04:49:39;9.70;49.30
60848;DHT22;46681;47.696;9.140;2023-02-14T04:52:06;9.70;49.30
60848;DHT22;46681;47.696;9.140;2023-02-14T04:54:32;9.80;49.30
60848;DHT22;46681;47.696;9.140;2023-02-14T04:56:57;9.70;49.20
60848;DHT22;46681;47.696;9.140;2023-02-14T04:59:23;9.80;49.30
60848;DHT22;46681;47.696;9.140;2023-02-14T05:01:49;9.80;49.20
60848;DHT22;46681;47.696;9.140;2023-02-14T05:04:14;9.80;49.20
60848;DHT22;46681;47.696;9.140;2023-02-14T05:06:40;9.80;49.20
60848;DHT22;46681;47.696;9.140;2023-02-14T05:09:05;9.80;49.20
60848;DHT22;46681;47.696;9.140;2023-02-14T05:11:32;9.80;49.20
60848;DHT22;46681;47.696;9.140;2023-02-14T05:13:58;9.80;49.20
60848;DHT22;46681;47.696;9.140;2023-02-14T05:16:23;9.80;49.20
60848;DHT22;46681;47.696;9.140;2023-02-14T05:18:49;9.80;49.10
60848;DHT22;46681;47.696;9.140;2023-02-14T05:21:15;9.80;49.60
60848;DHT22;46681;47.696;9.140;2023-02-14T05:23:40;9.80;49.10
60848;DHT22;46681;47.696;9.140;2023-02-14T05:26:07;9.80;49.10
60848;DHT22;46681;47.696;9.140;2023-02-14T05:28:37;9.90;49.10
60848;DHT22;46681;47.696;9.140;2023-02-14T05:31:03;9.90;49.10
60848;DHT22;46681;47.696;9.140;2023-02-14T05:33:28;9.90;49.10
60848;DHT22;46681;47.696;9.140;2023-02-14T05:36:00;9.90;49.10
60848;DHT22;46681;47.696;9.140;2023-02-14T05:38:26;9.90;48.90
60848;DHT22;46681;47.696;9.140;2023-02-14T05:40:54;10.00;48.90
60848;DHT22;46681;47.696;9.140;2023-02-14T05:43:22;10.00;48.90
60848;DHT22;46681;47.696;9.140;2023-02-14T05:45:48;10.00;48.80
60848;DHT22;46681;47.696;9.140;2023-02-14T05:48:17;10.00;48.80
60848;DHT22;46681;47.696;9.140;2023-02-14T05:50:42;10.10;48.80
60848;DHT22;46681;47.696;9.140;2023-02-14T05:53:08;10.00;48.70
60848;DHT22;46681;47.696;9.140;2023-02-14T05:55:38;10.10;48.70
60848;DHT22;46681;47.696;9.140;2023-02-14T05:58:04;10.10;48.90
60848;DHT22;46681;47.696;9.140;2023-02-14T06:00:43;10.10;48.80
60848;DHT22;46681;47.696;9.140;2023-02-14T06:03:08;10.10;48.90
60848;DHT22;46681;47.696;9.140;2023-02-14T06:05:35;10.10;48.80
60848;DHT22;46681;47.696;9.140;2023-02-14T06:08:02;10.00;48.80
60848;DHT22;46681;47.696;9.140;2023-02-14T06:10:43;10.00;48.80
60848;DHT22;46681;47.696;9.140;2023-02-14T06:13:17;10.00;48.80
60848;DHT22;46681;47.696;9.140;2023-02-14T06:15:44;10.00;48.90
60848;DHT22;46681;47.696;9.140;2023-02-14T06:18:09;10.00;48.90
60848;DHT22;46681;47.696;9.140;2023-02-14T06:20:39;9.90;48.90
60848;DHT22;46681;47.696;9.140;2023-02-14T06:23:18;9.90;49.10
60848;DHT22;46681;47.696;9.140;2023-02-14T06:25:51;9.80;49.10
60848;DHT22;46681;47.696;9.140;2023-02-14T06:28:18;9.80;49.20
60848;DHT22;46681;47.696;9.140;2023-02-14T06:30:46;9.80;49.20
60848;DHT22;46681;47.696;9.140;2023-02-14T06:33:20;9.70;49.10
60848;DHT22;46681;47.696;9.140;2023-02-14T06:35:45;9.80;50.40
60848;DHT22;46681;47.696;9.140;2023-02-14T06:38:12;9.80;49.90
60848;DHT22;46681;47.696;9.140;2023-02-14T06:40:38;9.70;49.70
60848;DHT22;46681;47.696;9.140;2023-02-14T06:43:10;9.70;49.80
60848;DHT22;46681;47.696;9.140;2023-02-14T06:45:41;9.60;49.80
60848;DHT22;46681;47.696;9.140;2023-02-14T06:48:06;9.60;49.80
60848;DHT22;46681;47.696;9.140;2023-02-14T06:50:37;9.60;49.90
60848;DHT22;46681;47.696;9.140;2023-02-14T06:53:07;9.60;50.00
60848;DHT22;46681;47.696;9.140;2023-02-14T06:55:33;9.60;50.10
60848;DHT22;46681;47.696;9.140;2023-02-14T06:57:59;9.50;50.00
60848;DHT22;46681;47.696;9.140;2023-02-14T07:00:36;9.50;50.00
60848;DHT22;46681;47.696;9.140;2023-02-14T07:03:09;9.50;50.00
60848;DHT22;46681;47.696;9.140;2023-02-14T07:05:38;9.50;50.00
60848;DHT22;46681;47.696;9.140;2023-02-14T07:08:06;9.50;50.20
60848;DHT22;46681;47.696;9.140;2023-02-14T07:10:35;9.50;50.20
60848;DHT22;46681;47.696;9.140;2023-02-14T07:13:06;9.40;50.20
60848;DHT22;46681;47.696;9.140;2023-02-14T07:15:32;9.40;50.20
60848;DHT22;46681;47.696;9.140;2023-02-14T07:17:58;9.40;50.20
60848;DHT22;46681;47.696;9.140;2023-02-14T07:20:29;9.40;50.30
60848;DHT22;46681;47.696;9.140;2023-02-14T07:22:55;9.40;50.20
60848;DHT22;46681;47.696;9.140;2023-02-14T07:25:23;9.40;50.20
60848;DHT22;46681;47.696;9.140;2023-02-14T07:27:48;9.40;50.20
60848;DHT22;46681;47.696;9.140;2023-02-14T07:30:16;9.40;50.20
60848;DHT22;46681;47.696;9.140;2023-02-14T07:32:42;9.40;50.20
60848;DHT22;46681;47.696;9.140;2023-02-14T07:35:08;9.40;50.20
60848;DHT22;46681;47.696;9.140;2023-02-14T07:37:39;9.40;50.10
60848;DHT22;46681;47.696;9.140;2023-02-14T07:40:11;9.40;50.20
60848;DHT22;46681;47.696;9.140;2023-02-14T07:42:42;9.50;50.20
60848;DHT22;46681;47.696;9.140;2023-02-14T07:45:10;9.50;50.20
60848;DHT22;46681;47.696;9.140;2023-02-14T07:47:39;9.50;50.10
60848;DHT22;46681;47.696;9.140;2023-02-14T07:50:08;9.50;50.00
60848;DHT22;46681;47.696;9.140;2023-02-14T07:52:36;9.50;50.10
60848;DHT22;46681;47.696;9.140;2023-02-14T07:55:07;9.50;50.10
60848;DHT22;46681;47.696;9.140;2023-02-14T07:57:34;9.50;50.10
60848;DHT22;46681;47.696;9.140;2023-02-14T07:59:59;9.60;50.60
60848;DHT22;46681;47.696;9.140;2023-02-14T08:02:25;9.60;50.30
60848;DHT22;46681;47.696;9.140;2023-02-14T08:04:51;9.60;50.30
60848;DHT22;46681;47.696;9.140;2023-02-14T08:07:23;9.60;50.20
60848;DHT22;46681;47.696;9.140;2023-02-14T08:09:51;9.60;50.20
60848;DHT22;46681;47.696;9.140;2023-02-14T08:12:18;9.60;50.20
60848;DHT22;46681;47.696;9.140;2023-02-14T08:14:44;9.60;50.10
60848;DHT22;46681;47.696;9.140;2023-02-14T08:17:10;9.60;50.00
60848;DHT22;46681;47.696;9.140;2023-02-14T08:19:37;9.60;50.00
60848;DHT22;46681;47.696;9.140;2023-02-14T08:22:04;9.60;50.00
60848;DHT22;46681;47.696;9.140;2023-02-14T08:24:30;9.60;50.00
60848;DHT22;46681;47.696;9.140;2023-02-14T08:26:57;9.60;50.00
60848;DHT22;46681;47.696;9.140;2023-02-14T08:29:28;9.70;50.00
60848;DHT22;46681;47.696;9.140;2023-02-14T08:31:54;9.60;49.90
60848;DHT22;46681;47.696;9.140;2023-02-14T08:34:20;9.70;49.90
60848;DHT22;46681;47.696;9.140;2023-02-14T08:36:46;9.70;49.90
60848;DHT22;46681;47.696;9.140;2023-02-14T08:39:12;9.70;49.90
60848;DHT22;46681;47.696;9.140;2023-02-14T08:41:37;9.70;49.80
60848;DHT22;46681;47.696;9.140;2023-02-14T08:44:05;9.70;49.80
60848;DHT22;46681;47.696;9.140;2023-02-14T08:46:36;9.70;49.80
60848;DHT22;46681;47.696;9.140;2023-02-14T08:49:14;9.70;49.70
60848;DHT22;46681;47.696;9.140;2023-02-14T08:51:57;9.80;49.80
60848;DHT22;46681;47.696;9.140;2023-02-14T08:54:29;9.80;49.80
60848;DHT22;46681;47.696;9.140;2023-02-14T08:57:08;9.80;49.70
60848;DHT22;46681;47.696;9.140;2023-02-14T08:59:47;9.80;49.70
60848;DHT22;46681;47.696;9.140;2023-02-14T09:02:13;9.80;49.70
60848;DHT22;46681;47.696;9.140;2023-02-14T09:04:46;9.80;49.70
60848;DHT22;46681;47.696;9.140;2023-02-14T09:07:32;9.80;49.70
60848;DHT22;46681;47.696;9.140;2023-02-14T09:10:18;9.80;49.60
60848;DHT22;46681;47.696;9.140;2023-02-14T09:12:48;9.80;49.60
60848;DHT22;46681;47.696;9.140;2023-02-14T09:15:17;9.80;49.60
60848;DHT22;46681;47.696;9.140;2023-02-14T09:17:42;9.80;49.60
60848;DHT22;46681;47.696;9.140;2023-02-14T09:20:11;9.90;50.10
60848;DHT22;46681;47.696;9.140;2023-02-14T09:22:43;9.80;49.60
60848;DHT22;46681;47.696;9.140;2023-02-14T09:25:09;9.90;49.60
60848;DHT22;46681;47.696;9.140;2023-02-14T09:27:35;9.90;49.60
60848;DHT22;46681;47.696;9.140;2023-02-14T09:30:08;9.90;49.60
60848;DHT22;46681;47.696;9.140;2023-02-14T09:32:41;9.90;49.60
60848;DHT22;46681;47.696;9.140;2023-02-14T09:35:06;9.90;49.60
60848;DHT22;46681;47.696;9.140;2023-02-14T09:37:36;9.90;49.60
60848;DHT22;46681;47.696;9.140;2023-02-14T09:40:04;9.90;49.60
60848;DHT22;46681;47.696;9.140;2023-02-14T09:45:27;10.00;49.60
60848;DHT22;46681;47.696;9.140;2023-02-14T09:50:39;10.00;49.60
60848;DHT22;46681;47.696;9.140;2023-02-14T09:55:59;10.00;49.60
60848;DHT22;46681;47.696;9.140;2023-02-14T10:01:43;10.00;49.60
60848;DHT22;46681;47.696;9.140;2023-02-14T10:04:30;10.10;49.60
60848;DHT22;46681;47.696;9.140;2023-02-14T10:07:35;10.10;49.60
60848;DHT22;46681;47.696;9.140;2023-02-14T10:12:53;10.10;49.60
60848;DHT22;46681;47.696;9.140;2023-02-14T10:15:44;10.10;49.60
60848;DHT22;46681;47.696;9.140;2023-02-14T10:18:24;10.10;49.50
60848;DHT22;46681;47.696;9.140;2023-02-14T10:20:58;10.10;49.50
60848;DHT22;46681;47.696;9.140;2023-02-14T10:23:31;10.20;49.60
60848;DHT22;46681;47.696;9.140;2023-02-14T10:26:05;10.20;49.50
60848;DHT22;46681;47.696;9.140;2023-02-14T10:28:37;10.20;49.60
60848;DHT22;46681;47.696;9.140;2023-02-14T10:50:56;10.30;49.40
60848;DHT22;46681;47.696;9.140;2023-02-14T10:56:24;10.40;49.40
60848;DHT22;46681;47.696;9.140;2023-02-14T10:58:54;10.30;49.40
60848;DHT22;46681;47.696;9.140;2023-02-14T11:01:21;10.30;49.40
60848;DHT22;46681;47.696;9.140;2023-02-14T11:03:59;10.30;49.50
60848;DHT22;46681;47.696;9.140;2023-02-14T11:06:28;10.40;49.50
60848;DHT22;46681;47.696;9.140;2023-02-14T11:08:55;10.40;49.50
60848;DHT22;46681;47.696;9.140;2023-02-14T11:11:27;10.40;49.50
60848;DHT22;46681;47.696;9.140;2023-02-14T11:14:26;10.40;49.50
60848;DHT22;46681;47.696;9.140;2023-02-14T11:16:56;10.40;49.50
60848;DHT22;46681;47.696;9.140;2023-02-14T11:19:32;10.50;49.50
60848;DHT22;46681;47.696;9.140;2023-02-14T11:22:01;10.50;49.50
60848;DHT22;46681;47.696;9.140;2023-02-14T11:24:31;10.50;49.50
60848;DHT22;46681;47.696;9.140;2023-02-14T11:32:22;10.50;49.40
60848;DHT22;46681;47.696;9.140;2023-02-14T11:35:16;10.50;49.40
60848;DHT22;46681;47.696;9.140;2023-02-14T11:37:55;10.60;49.40
60848;DHT22;46681;47.696;9.140;2023-02-14T11:40:35;10.60;49.40
60848;DHT22;46681;47.696;9.140;2023-02-14T11:45:40;10.60;49.40
60848;DHT22;46681;47.696;9.140;2023-02-14T11:48:27;10.60;49.40
60848;DHT22;46681;47.696;9.140;2023-02-14T11:53:56;10.60;49.40
60848;DHT22;46681;47.696;9.140;2023-02-14T11:59:57;10.70;49.50
60848;DHT22;46681;47.696;9.140;2023-02-14T12:05:03;10.70;49.60
60848;DHT22;46681;47.696;9.140;2023-02-14T12:08:06;10.60;49.50
60848;DHT22;46681;47.696;9.140;2023-02-14T12:14:39;10.70;49.50
60848;DHT22;46681;47.696;9.140;2023-02-14T12:19:59;10.70;49.40
60848;DHT22;46681;47.696;9.140;2023-02-14T12:26:03;10.80;49.40
60848;DHT22;46681;47.696;9.140;2023-02-14T12:31:52;10.90;49.40
60848;DHT22;46681;47.696;9.140;2023-02-14T12:34:23;10.90;49.30
60848;DHT22;46681;47.696;9.140;2023-02-14T12:40:09;10.90;49.20
60848;DHT22;46681;47.696;9.140;2023-02-14T12:48:22;11.10;49.10
60848;DHT22;46681;47.696;9.140;2023-02-14T12:53:57;11.10;49.20
60848;DHT22;46681;47.696;9.140;2023-02-14T13:05:33;11.10;49.10
60848;DHT22;46681;47.696;9.140;2023-02-14T13:16:59;11.20;49.10
60848;DHT22;46681;47.696;9.140;2023-02-14T13:19:59;11.20;49.10
60848;DHT22;46681;47.696;9.140;2023-02-14T13:22:34;11.30;49.10
60848;DHT22;46681;47.696;9.140;2023-02-14T13:25:35;11.20;49.10
60848;DHT22;46681;47.696;9.140;2023-02-14T13:28:11;11.30;49.10
60848;DHT22;46681;47.696;9.140;2023-02-14T13:30:39;11.30;49.10
60848;DHT22;46681;47.696;9.140;2023-02-14T13:33:34;11.30;49.00
60848;DHT22;46681;47.696;9.140;2023-02-14T13:36:15;11.30;49.00
60848;DHT22;46681;47.696;9.140;2023-02-14T13:38:51;11.30;49.00
60848;DHT22;46681;47.696;9.140;2023-02-14T13:41:21;11.30;49.10
60848;DHT22;46681;47.696;9.140;2023-02-14T13:43:54;11.30;49.10
60848;DHT22;46681;47.696;9.140;2023-02-14T13:49:17;11.30;49.10
60848;DHT22;46681;47.696;9.140;2023-02-14T13:51:58;11.40;49.40
60848;DHT22;46681;47.696;9.140;2023-02-14T13:58:16;11.40;49.50
60848;DHT22;46681;47.696;9.140;2023-02-14T14:00:38;11.50;49.30
60848;DHT22;46681;47.696;9.140;2023-02-14T14:03:05;11.40;49.30
60848;DHT22;46681;47.696;9.140;2023-02-14T14:10:54;11.40;49.20
60848;DHT22;46681;47.696;9.140;2023-02-14T14:13:55;11.40;49.30
60848;DHT22;46681;47.696;9.140;2023-02-14T14:16:58;11.40;49.30
60848;DHT22;46681;47.696;9.140;2023-02-14T14:19:38;11.30;49.20
60848;DHT22;46681;47.696;9.140;2023-02-14T15:02:22;11.40;49.10
60848;DHT22;46681;47.696;9.140;2023-02-14T15:08:40;11.30;49.20
60848;DHT22;46681;47.696;9.140;2023-02-14T15:11:54;11.30;49.10
60848;DHT22;46681;47.696;9.140;2023-02-14T15:15:01;11.30;49.20
60848;DHT22;46681;47.696;9.140;2023-02-14T17:56:44;9.80;50.60
60848;DHT22;46681;47.696;9.140;2023-02-14T17:59:33;9.80;50.60
60848;DHT22;46681;47.696;9.140;2023-02-14T18:05:07;9.80;50.60
60848;DHT22;46681;47.696;9.140;2023-02-14T18:22:49;9.70;50.70
60848;DHT22;46681;47.696;9.140;2023-02-14T18:26:02;9.80;50.60
60848;DHT22;46681;47.696;9.140;2023-02-14T18:28:59;9.70;50.60
60848;DHT22;46681;47.696;9.140;2023-02-14T18:31:57;9.70;50.60
60848;DHT22;46681;47.696;9.140;2023-02-14T18:34:38;9.70;50.70
60848;DHT22;46681;47.696;9.140;2023-02-14T18:37:14;9.70;50.70
60848;DHT22;46681;47.696;9.140;2023-02-14T18:39:49;9.70;50.70
60848;DHT22;46681;47.696;9.140;2023-02-14T18:42:24;9.70;50.70
60848;DHT22;46681;47.696;9.140;2023-02-14T18:45:24;9.70;50.60
60848;DHT22;46681;47.696;9.140;2023-02-14T18:47:57;9.60;50.70
60848;DHT22;46681;47.696;9.140;2023-02-14T18:50:42;9.60;50.60
60848;DHT22;46681;47.696;9.140;2023-02-14T18:53:34;9.60;50.60
60848;DHT22;46681;47.696;9.140;2023-02-14T18:56:24;9.70;51.70
60848;DHT22;46681;47.696;9.140;2023-02-14T18:59:16;9.70;50.90
60848;DHT22;46681;47.696;9.140;2023-02-14T19:02:22;9.70;50.80
60848;DHT22;46681;47.696;9.140;2023-02-14T19:04:58;9.70;50.80
60848;DHT22;46681;47.696;9.140;2023-02-14T19:10:25;9.70;50.80
60848;DHT22;46681;47.696;9.140;2023-02-14T19:12:51;9.60;50.70
60848;DHT22;46681;47.696;9.140;2023-02-14T19:15:46;9.60;50.70
60848;DHT22;46681;47.696;9.140;2023-02-14T19:18:28;9.60;50.80
60848;DHT22;46681;47.696;9.140;2023-02-14T19:20:54;9.60;50.70
60848;DHT22;46681;47.696;9.140;2023-02-14T19:23:37;9.60;50.70
60848;DHT22;46681;47.696;9.140;2023-02-14T19:32:44;9.50;50.70
60848;DHT22;46681;47.696;9.140;2023-02-14T19:36:00;9.60;50.70
60848;DHT22;46681;47.696;9.140;2023-02-14T19:39:06;9.60;50.70
60848;DHT22;46681;47.696;9.140;2023-02-14T19:42:03;9.60;50.70
60848;DHT22;46681;47.696;9.140;2023-02-14T19:44:58;9.50;50.70
60848;DHT22;46681;47.696;9.140;2023-02-14T19:47:39;9.50;50.70
60848;DHT22;46681;47.696;9.140;2023-02-14T19:50:24;9.50;50.70
60848;DHT22;46681;47.696;9.140;2023-02-14T19:52:59;9.50;50.70
60848;DHT22;46681;47.696;9.140;2023-02-14T19:55:44;9.50;50.70
60848;DHT22;46681;47.696;9.140;2023-02-14T19:58:26;9.50;50.70
60848;DHT22;46681;47.696;9.140;2023-02-14T20:01:13;9.50;50.80
60848;DHT22;46681;47.696;9.140;2023-02-14T20:03:59;9.50;50.70
60848;DHT22;46681;47.696;9.140;2023-02-14T20:07:01;9.50;50.70
60848;DHT22;46681;47.696;9.140;2023-02-14T20:09:34;9.50;50.70
60848;DHT22;46681;47.696;9.140;2023-02-14T20:12:29;9.50;50.70
60848;DHT22;46681;47.696;9.140;2023-02-14T20:18:27;9.50;51.00
60848;DHT22;46681;47.696;9.140;2023-02-14T20:21:32;9.50;51.00
60848;DHT22;46681;47.696;9.140;2023-02-14T20:27:46;9.50;50.80
60848;DHT22;46681;47.696;9.140;2023-02-14T20:42:37;9.50;50.90
60848;DHT22;46681;47.696;9.140;2023-02-14T20:48:06;9.50;50.80
60848;DHT22;46681;47.696;9.140;2023-02-14T20:53:58;9.50;50.90
60848;DHT22;46681;47.696;9.140;2023-02-14T20:56:49;9.50;51.30
60848;DHT22;46681;47.696;9.140;2023-02-14T20:59:32;9.50;50.90
60848;DHT22;46681;47.696;9.140;2023-02-14T21:08:45;9.50;50.90
60848;DHT22;46681;47.696;9.140;2023-02-14T21:20:50;9.40;50.90
60848;DHT22;46681;47.696;9.140;2023-02-14T21:38:37;9.30;50.90
60848;DHT22;46681;47.696;9.140;2023-02-14T21:41:38;9.30;50.90
60848;DHT22;46681;47.696;9.140;2023-02-14T21:44:04;9.30;51.00
60848;DHT22;46681;47.696;9.140;2023-02-14T21:47:03;9.30;50.90
60848;DHT22;46681;47.696;9.140;2023-02-14T21:55:34;9.30;50.90
60848;DHT22;46681;47.696;9.140;2023-02-14T21:58:29;9.30;50.90
60848;DHT22;46681;47.696;9.140;2023-02-14T22:07:51;9.30;50.90
60848;DHT22;46681;47.696;9.140;2023-02-14T22:10:17;9.30;50.90
60848;DHT22;46681;47.696;9.140;2023-02-14T22:13:10;9.30;50.90
60848;DHT22;46681;47.696;9.140;2023-02-14T22:15:40;9.30;50.90
60848;DHT22;46681;47.696;9.140;2023-02-14T22:21:11;9.30;50.90
60848;DHT22;46681;47.696;9.140;2023-02-14T22:23:37;9.30;51.00
60848;DHT22;46681;47.696;9.140;2023-02-14T22:28:36;9.30;50.80
60848;DHT22;46681;47.696;9.140;2023-02-14T22:31:01;9.30;50.80
60848;DHT22;46681;47.696;9.140;2023-02-14T22:33:27;9.30;50.80
60848;DHT22;46681;47.696;9.140;2023-02-14T22:35:54;9.30;50.80
60848;DHT22;46681;47.696;9.140;2023-02-14T22:38:23;9.30;50.80
60848;DHT22;46681;47.696;9.140;2023-02-14T22:40:50;9.30;50.80
60848;DHT22;46681;47.696;9.140;2023-02-14T22:43:16;9.30;50.90
60848;DHT22;46681;47.696;9.140;2023-02-14T22:45:47;9.30;50.80
60848;DHT22;46681;47.696;9.140;2023-02-14T22:48:13;9.30;50.80
60848;DHT22;46681;47.696;9.140;2023-02-14T22:50:44;9.30;50.90
60848;DHT22;46681;47.696;9.140;2023-02-14T22:53:09;9.30;50.80
60848;DHT22;46681;47.696;9.140;2023-02-14T22:55:36;9.30;50.80
60848;DHT22;46681;47.696;9.140;2023-02-14T22:58:01;9.30;50.80
60848;DHT22;46681;47.696;9.140;2023-02-14T23:00:27;9.30;50.80
60848;DHT22;46681;47.696;9.140;2023-02-14T23:02:53;9.30;50.80
60848;DHT22;46681;47.696;9.140;2023-02-14T23:05:19;9.30;50.90
60848;DHT22;46681;47.696;9.140;2023-02-14T23:07:45;9.30;50.90
60848;DHT22;46681;47.696;9.140;2023-02-14T23:10:13;9.30;50.90
60848;DHT22;46681;47.696;9.140;2023-02-14T23:12:41;9.30;51.00
60848;DHT22;46681;47.696;9.140;2023-02-14T23:15:10;9.20;50.80
60848;DHT22;46681;47.696;9.140;2023-02-14T23:17:35;9.30;50.70
60848;DHT22;46681;47.696;9.140;2023-02-14T23:20:01;9.20;50.70
60848;DHT22;46681;47.696;9.140;2023-02-14T23:22:29;9.20;50.70
60848;DHT22;46681;47.696;9.140;2023-02-14T23:25:04;9.20;50.80
60848;DHT22;46681;47.696;9.140;2023-02-14T23:27:36;9.20;50.70
60848;DHT22;46681;47.696;9.140;2023-02-14T23:30:03;9.20;50.80
60848;DHT22;46681;47.696;9.140;2023-02-14T23:32:29;9.20;50.70
60848;DHT22;46681;47.696;9.140;2023-02-14T23:34:56;9.20;50.70
60848;DHT22;46681;47.696;9.140;2023-02-14T23:37:21;9.20;50.60
60848;DHT22;46681;47.696;9.140;2023-02-14T23:39:47;9.30;50.60
60848;DHT22;46681;47.696;9.140;2023-02-14T23:42:14;9.20;50.60
60848;DHT22;46681;47.696;9.140;2023-02-14T23:44:43;9.20;50.70
60848;DHT22;46681;47.696;9.140;2023-02-14T23:47:09;9.20;50.60
60848;DHT22;46681;47.696;9.140;2023-02-14T23:49:37;9.30;50.60
60848;DHT22;46681;47.696;9.140;2023-02-14T23:52:04;9.30;50.60
60848;DHT22;46681;47.696;9.140;2023-02-14T23:54:30;9.30;50.60
60848;DHT22;46681;47.696;9.140;2023-02-14T23:56:55;9.30;50.60
60848;DHT22;46681;47.696;9.140;2023-02-14T23:59:21;9.30;50.50
